Time;durP1;ratioP1;P1;durP2;ratioP2;P2;SDS_P1;SDS_P2;PMS_P1;PMS_P2;Temp;Humidity;BMP_temperature;BMP_pressure;BME280_temperature;BME280_humidity;BME280_pressure;Samples;Min_cycle;Max_cycle;Signal;HPM_P1;HPM_P2
2023/09/02 00:02:15;;;;;;;3.25;1.85;;;20.70;99.90;;;;;;5022655;28;20959;-76
2023/09/02 00:04:41;;;;;;;2.53;2.33;;;20.60;99.90;;;;;;5016693;28;20258;-77
2023/09/02 00:07:08;;;;;;;2.17;2.03;;;20.60;99.90;;;;;;5026007;28;20285;-76
2023/09/02 00:09:35;;;;;;;3.13;2.30;;;20.60;99.90;;;;;;5021733;28;20344;-77
2023/09/02 00:12:04;;;;;;;2.30;2.10;;;20.60;99.90;;;;;;5019808;28;20235;-77
2023/09/02 00:14:31;;;;;;;2.55;2.35;;;20.60;99.90;;;;;;5025692;28;20398;-76
2023/09/02 00:16:58;;;;;;;2.97;2.13;;;20.60;99.90;;;;;;5024787;28;20658;-76
2023/09/02 00:19:25;;;;;;;2.50;1.92;;;20.60;99.90;;;;;;5025870;28;20211;-78
2023/09/02 00:21:52;;;;;;;2.28;1.90;;;20.60;99.90;;;;;;5024783;28;20203;-77
2023/09/02 00:24:19;;;;;;;1.80;1.70;;;20.60;99.90;;;;;;5024542;28;20713;-76
2023/09/02 00:26:46;;;;;;;1.90;1.80;;;20.70;99.90;;;;;;5025535;28;20223;-76
2023/09/02 00:29:14;;;;;;;1.98;1.88;;;20.80;99.90;;;;;;5026048;28;20261;-77
2023/09/02 00:31:41;;;;;;;2.08;1.88;;;20.80;99.90;;;;;;5026439;28;20271;-77
2023/09/02 00:34:08;;;;;;;2.05;1.63;;;20.80;99.90;;;;;;5026601;28;20225;-76
2023/09/02 00:36:35;;;;;;;2.47;2.13;;;20.80;99.90;;;;;;5020528;28;20219;-77
2023/09/02 00:39:03;;;;;;;2.20;2.00;;;20.80;99.90;;;;;;5017390;28;20752;-76
2023/09/02 00:41:33;;;;;;;3.00;2.30;;;20.80;99.90;;;;;;5018222;28;20278;-76
2023/09/02 00:44:00;;;;;;;3.00;2.08;;;20.80;99.90;;;;;;5028558;28;20207;-76
2023/09/02 00:46:29;;;;;;;2.97;1.88;;;20.80;99.90;;;;;;5029774;28;20203;-76
2023/09/02 00:48:56;;;;;;;3.50;2.15;;;20.80;99.90;;;;;;5020805;28;20227;-76
2023/09/02 00:51:23;;;;;;;2.35;2.13;;;20.80;99.90;;;;;;5023835;28;20498;-76
2023/09/02 00:53:50;;;;;;;2.20;2.00;;;20.80;99.90;;;;;;5024379;28;20209;-77
2023/09/02 00:56:18;;;;;;;2.30;2.00;;;20.70;99.90;;;;;;5010745;28;20222;-76
2023/09/02 00:58:45;;;;;;;2.35;2.15;;;20.60;99.90;;;;;;5019902;28;20223;-77
2023/09/02 01:01:12;;;;;;;1.98;1.88;;;20.60;99.90;;;;;;5029006;28;20580;-76
2023/09/02 01:03:42;;;;;;;2.22;2.03;;;20.50;99.90;;;;;;5027887;28;20208;-76
2023/09/02 01:06:09;;;;;;;2.58;2.03;;;20.50;99.90;;;;;;5025313;28;20304;-76
2023/09/02 01:08:37;;;;;;;3.47;2.50;;;20.50;99.90;;;;;;5034416;28;20304;-77
2023/09/02 01:11:04;;;;;;;2.17;1.98;;;20.40;99.90;;;;;;5025987;28;20227;-77
2023/09/02 01:13:31;;;;;;;3.42;2.92;;;20.40;99.90;;;;;;5026777;28;20302;-77
2023/09/02 01:15:58;;;;;;;2.40;2.20;;;20.40;99.90;;;;;;5021877;28;20238;-77
2023/09/02 01:18:26;;;;;;;2.78;2.42;;;20.20;99.90;;;;;;5029753;28;20788;-77
2023/09/02 01:21:11;;;;;;;2.92;2.50;;;20.10;99.90;;;;;;5030716;28;20545;-77
2023/09/02 01:24:10;;;;;;;3.47;2.55;;;20.00;99.90;;;;;;5029029;28;20602;-76
2023/09/02 01:27:05;;;;;;;3.30;2.28;;;20.00;99.90;;;;;;5019292;28;20286;-77
2023/09/02 01:29:36;;;;;;;2.50;2.30;;;19.90;99.90;;;;;;5030015;28;20261;-75
2023/09/02 01:32:08;;;;;;;4.03;2.72;;;19.90;99.90;;;;;;5029103;28;21033;-76
2023/09/02 01:34:37;;;;;;;2.20;2.08;;;19.80;99.90;;;;;;5028563;28;20246;-76
2023/09/02 01:37:08;;;;;;;2.80;2.53;;;19.80;99.90;;;;;;5030011;28;20227;-77
2023/09/02 01:39:37;;;;;;;3.55;3.25;;;19.80;99.90;;;;;;5031442;28;20262;-77
2023/09/02 01:42:07;;;;;;;3.85;2.50;;;19.80;99.90;;;;;;5019640;28;20200;-77
2023/09/02 01:44:35;;;;;;;2.65;2.45;;;19.60;99.90;;;;;;5022647;28;20208;-76
2023/09/02 01:47:03;;;;;;;2.63;2.35;;;19.60;99.90;;;;;;5019809;28;20231;-77
2023/09/02 01:49:31;;;;;;;2.45;2.25;;;19.60;99.90;;;;;;5030299;28;20298;-77
2023/09/02 01:51:58;;;;;;;2.40;2.20;;;19.60;99.90;;;;;;5024478;28;20219;-77
2023/09/02 01:54:26;;;;;;;2.80;2.58;;;19.70;99.90;;;;;;5031664;28;20282;-77
2023/09/02 01:56:54;;;;;;;2.38;2.17;;;19.70;99.90;;;;;;5020094;28;20242;-77
2023/09/02 01:59:22;;;;;;;2.50;2.30;;;19.70;99.90;;;;;;5027261;28;20230;-77
2023/09/02 02:01:49;;;;;;;2.65;2.42;;;19.70;99.90;;;;;;5021036;28;20290;-77
2023/09/02 02:04:24;;;;;;;3.03;2.55;;;19.70;99.90;;;;;;5019800;28;20224;-76
2023/09/02 02:06:54;;;;;;;3.20;2.20;;;19.70;99.90;;;;;;5021040;28;20203;-77
2023/09/02 02:09:31;;;;;;;2.38;2.17;;;19.70;99.90;;;;;;5026522;28;20234;-77
2023/09/02 02:12:00;;;;;;;3.40;2.40;;;19.70;99.90;;;;;;5026405;28;20227;-76
2023/09/02 02:14:32;;;;;;;2.90;2.33;;;19.70;99.90;;;;;;5029108;28;20279;-77
2023/09/02 02:16:59;;;;;;;2.50;2.30;;;19.60;99.90;;;;;;5030477;28;20208;-77
2023/09/02 02:19:26;;;;;;;2.00;1.90;;;19.60;99.90;;;;;;5029398;28;20261;-77
2023/09/02 02:21:53;;;;;;;3.05;2.42;;;19.50;99.90;;;;;;5035107;28;20284;-78
2023/09/02 02:24:20;;;;;;;2.67;2.47;;;19.60;99.90;;;;;;5027729;28;20203;-77
2023/09/02 02:26:47;;;;;;;2.75;2.38;;;19.60;99.90;;;;;;5023415;28;20223;-77
2023/09/02 02:29:14;;;;;;;3.22;2.28;;;19.60;99.90;;;;;;5022466;28;20278;-77
2023/09/02 02:31:42;;;;;;;2.35;2.25;;;19.60;99.90;;;;;;5029912;28;20227;-76
2023/09/02 02:34:09;;;;;;;2.80;1.98;;;19.50;99.90;;;;;;5023032;28;20203;-76
2023/09/02 02:36:36;;;;;;;2.00;1.90;;;19.60;99.90;;;;;;5020240;28;20368;-77
2023/09/02 02:39:04;;;;;;;3.28;2.25;;;19.50;99.90;;;;;;5029227;28;20250;-77
2023/09/02 02:41:31;;;;;;;2.70;2.50;;;19.50;99.90;;;;;;5027386;28;20195;-76
2023/09/02 02:43:59;;;;;;;2.42;2.03;;;19.60;99.90;;;;;;5028723;28;20784;-78
2023/09/02 02:46:26;;;;;;;2.03;1.90;;;19.60;99.90;;;;;;5026036;28;20211;-77
2023/09/02 02:48:55;;;;;;;2.40;1.98;;;19.60;99.90;;;;;;5027947;28;20251;-76
2023/09/02 02:51:22;;;;;;;2.17;1.98;;;19.60;99.90;;;;;;5023759;28;20242;-77
2023/09/02 02:53:49;;;;;;;2.08;1.98;;;19.60;99.90;;;;;;5019517;28;20242;-76
2023/09/02 02:56:16;;;;;;;2.60;2.40;;;19.60;99.90;;;;;;5028379;28;20206;-77
2023/09/02 02:58:42;;;;;;;2.47;2.30;;;19.60;99.90;;;;;;5031325;28;20612;-76
2023/09/02 03:01:11;;;;;;;2.20;2.03;;;19.60;99.90;;;;;;5029843;28;20196;-77
2023/09/02 03:03:38;;;;;;;2.55;2.35;;;19.60;99.90;;;;;;5027010;28;20290;-77
2023/09/02 03:06:07;;;;;;;3.65;2.58;;;19.60;99.90;;;;;;5032059;28;20203;-77
2023/09/02 03:08:34;;;;;;;2.28;2.08;;;19.60;99.90;;;;;;5030977;28;20247;-77
2023/09/02 03:11:03;;;;;;;2.75;2.30;;;19.50;99.90;;;;;;5028349;28;20206;-77
2023/09/02 03:13:33;;;;;;;2.30;2.17;;;19.40;99.90;;;;;;5030957;28;20249;-77
2023/09/02 03:16:00;;;;;;;2.22;2.03;;;19.30;99.90;;;;;;5033555;28;20244;-76
2023/09/02 03:18:28;;;;;;;2.28;2.08;;;19.30;99.90;;;;;;5029205;28;20261;-77
2023/09/02 03:20:55;;;;;;;2.40;2.20;;;19.30;99.90;;;;;;5027983;28;20214;-77
2023/09/02 03:23:24;;;;;;;2.33;2.13;;;19.30;99.90;;;;;;5023445;28;20208;-77
2023/09/02 03:25:51;;;;;;;2.60;2.40;;;19.30;99.90;;;;;;5032567;28;20414;-76
2023/09/02 03:28:17;;;;;;;2.88;2.67;;;19.20;99.90;;;;;;5024229;28;20259;-77
2023/09/02 03:30:44;;;;;;;2.67;2.00;;;19.20;99.90;;;;;;5031799;28;20632;-75
2023/09/02 03:33:14;;;;;;;2.30;2.10;;;19.20;99.90;;;;;;5027890;28;20246;-77
2023/09/02 03:35:41;;;;;;;2.35;2.17;;;19.20;99.90;;;;;;5026997;28;20207;-76
2023/09/02 03:38:08;;;;;;;2.33;2.13;;;19.30;99.90;;;;;;5031698;28;20223;-77
2023/09/02 03:40:37;;;;;;;2.58;2.38;;;19.30;99.90;;;;;;5029919;28;20763;-78
2023/09/02 03:43:05;;;;;;;2.92;2.40;;;19.30;99.90;;;;;;5024903;28;20196;-76
2023/09/02 03:45:32;;;;;;;3.97;2.58;;;19.30;99.90;;;;;;5031924;28;20230;-77
2023/09/02 03:47:59;;;;;;;2.75;2.50;;;19.30;99.90;;;;;;5029504;28;20662;-77
2023/09/02 03:50:27;;;;;;;2.55;2.33;;;19.20;99.90;;;;;;5026713;28;20332;-77
2023/09/02 03:52:53;;;;;;;2.28;2.13;;;19.20;99.90;;;;;;5029751;28;20323;-77
2023/09/02 03:55:20;;;;;;;3.03;2.42;;;19.10;99.90;;;;;;5026816;28;20904;-77
2023/09/02 03:57:49;;;;;;;2.65;2.45;;;19.10;99.90;;;;;;5027141;28;20235;-77
2023/09/02 04:00:17;;;;;;;2.42;2.22;;;19.20;99.90;;;;;;5006341;28;20204;-78
2023/09/02 04:02:44;;;;;;;2.13;2.00;;;19.10;99.90;;;;;;5024648;28;20584;-77
2023/09/02 04:05:11;;;;;;;3.17;2.40;;;19.10;99.90;;;;;;5029927;28;20235;-77
2023/09/02 04:07:38;;;;;;;2.47;2.28;;;19.00;99.90;;;;;;5023035;28;20239;-77
2023/09/02 04:10:06;;;;;;;2.63;2.42;;;18.90;99.90;;;;;;5029166;28;20774;-77
2023/09/02 04:12:34;;;;;;;2.55;2.35;;;18.90;99.90;;;;;;5030242;28;20266;-77
2023/09/02 04:15:03;;;;;;;2.47;2.28;;;18.90;99.90;;;;;;5016615;28;20199;-77
2023/09/02 04:17:30;;;;;;;2.60;2.40;;;18.90;99.90;;;;;;5029089;28;20294;-77
2023/09/02 04:20:00;;;;;;;2.72;2.40;;;18.90;99.90;;;;;;5022263;28;20272;-77
2023/09/02 04:22:28;;;;;;;2.03;1.92;;;18.90;99.90;;;;;;5029035;28;20216;-77
2023/09/02 04:24:56;;;;;;;2.30;2.20;;;18.90;99.90;;;;;;5023802;28;20730;-77
2023/09/02 04:27:23;;;;;;;2.55;2.03;;;18.90;99.90;;;;;;5026076;28;20204;-77
2023/09/02 04:29:52;;;;;;;2.63;2.20;;;18.90;99.90;;;;;;5028690;28;20656;-76
2023/09/02 04:32:20;;;;;;;2.47;2.28;;;18.90;99.90;;;;;;5027049;28;20200;-77
2023/09/02 04:34:47;;;;;;;2.25;2.05;;;18.90;99.90;;;;;;5028417;28;20200;-77
2023/09/02 04:37:14;;;;;;;2.50;2.30;;;18.80;99.90;;;;;;5028904;28;20714;-77
2023/09/02 04:39:41;;;;;;;2.75;2.50;;;18.80;99.90;;;;;;5018770;28;20277;-77
2023/09/02 04:42:08;;;;;;;2.92;2.72;;;18.80;99.90;;;;;;5022549;28;20616;-76
2023/09/02 04:44:35;;;;;;;2.40;2.20;;;18.70;99.90;;;;;;5022489;28;20268;-77
2023/09/02 04:47:02;;;;;;;2.58;2.00;;;18.70;99.90;;;;;;5025617;28;20250;-77
2023/09/02 04:49:30;;;;;;;2.72;2.53;;;18.70;99.90;;;;;;5018339;28;20220;-77
2023/09/02 04:51:57;;;;;;;2.40;2.20;;;18.80;99.90;;;;;;5024007;28;20682;-77
2023/09/02 04:54:25;;;;;;;2.55;2.30;;;18.80;99.90;;;;;;5018230;28;20242;-77
2023/09/02 04:56:52;;;;;;;2.63;2.42;;;18.80;99.90;;;;;;5024066;28;20207;-77
2023/09/02 04:59:18;;;;;;;3.03;2.17;;;18.90;99.90;;;;;;5011596;28;20224;-77
2023/09/02 05:01:45;;;;;;;2.70;2.50;;;18.90;99.90;;;;;;5025386;28;20666;-76
2023/09/02 05:04:12;;;;;;;2.05;1.95;;;18.90;99.90;;;;;;5033121;28;20261;-78
2023/09/02 05:06:40;;;;;;;2.30;2.20;;;18.90;99.90;;;;;;5035938;28;20227;-76
2023/09/02 05:09:08;;;;;;;2.40;2.20;;;18.80;99.90;;;;;;5033614;28;20274;-77
2023/09/02 05:11:34;;;;;;;2.90;2.70;;;18.80;99.90;;;;;;5037089;28;20277;-78
2023/09/02 05:14:01;;;;;;;3.08;2.65;;;18.80;99.90;;;;;;5038679;28;20257;-76
2023/09/02 05:16:28;;;;;;;2.55;2.30;;;18.80;99.90;;;;;;5037707;28;20673;-77
2023/09/02 05:18:55;;;;;;;3.08;2.30;;;18.80;99.90;;;;;;5026300;28;20219;-77
2023/09/02 05:21:22;;;;;;;2.50;2.30;;;18.80;99.90;;;;;;5033502;28;20199;-77
2023/09/02 05:23:52;;;;;;;3.20;2.20;;;18.80;99.90;;;;;;5027850;28;20203;-77
2023/09/02 05:26:19;;;;;;;2.28;2.17;;;18.80;99.90;;;;;;5030423;28;20192;-77
2023/09/02 05:28:46;;;;;;;2.58;2.33;;;18.90;99.90;;;;;;5033943;28;20265;-78
2023/09/02 05:31:13;;;;;;;2.42;2.22;;;18.90;99.90;;;;;;5027970;28;20254;-75
2023/09/02 05:33:40;;;;;;;3.53;2.30;;;19.10;99.90;;;;;;5028546;28;20264;-77
2023/09/02 05:36:07;;;;;;;3.42;2.50;;;19.20;99.90;;;;;;5018995;28;20199;-77
2023/09/02 05:38:34;;;;;;;3.42;2.55;;;19.30;99.90;;;;;;5021441;28;20255;-77
2023/09/02 05:41:02;;;;;;;2.80;2.58;;;19.30;99.90;;;;;;5037159;28;20269;-77
2023/09/02 05:43:29;;;;;;;2.80;2.60;;;19.30;99.90;;;;;;5037018;28;20241;-77
2023/09/02 05:45:59;;;;;;;5.20;3.13;;;19.30;99.90;;;;;;5035944;28;20202;-77
2023/09/02 05:48:26;;;;;;;4.32;3.05;;;19.30;99.90;;;;;;5029862;28;20592;-77
2023/09/02 05:50:57;;;;;;;5.07;3.20;;;19.40;99.90;;;;;;5030954;28;20227;-77
2023/09/02 05:53:24;;;;;;;3.75;2.80;;;19.50;99.90;;;;;;5028725;28;20213;-77
2023/09/02 05:55:55;;;;;;;4.38;2.97;;;19.60;99.90;;;;;;5034695;28;20266;-77
2023/09/02 05:58:23;;;;;;;5.55;2.70;;;19.90;99.90;;;;;;5024110;28;20231;-76
2023/09/02 06:00:50;;;;;;;2.70;2.50;;;20.20;99.90;;;;;;5021361;28;20738;-77
2023/09/02 06:03:17;;;;;;;3.25;2.50;;;20.60;99.90;;;;;;5033856;28;20206;-76
2023/09/02 06:05:44;;;;;;;4.50;2.85;;;20.80;99.90;;;;;;5028421;28;20315;-76
2023/09/02 06:08:11;;;;;;;2.90;2.70;;;20.90;99.90;;;;;;5037855;28;20277;-77
2023/09/02 06:10:38;;;;;;;3.05;2.83;;;21.00;99.90;;;;;;5018607;28;20339;-78
2023/09/02 06:13:04;;;;;;;3.08;2.63;;;21.10;99.90;;;;;;5032039;28;20260;-76
2023/09/02 06:15:33;;;;;;;2.80;2.60;;;21.30;99.90;;;;;;5032051;28;20257;-76
2023/09/02 06:18:01;;;;;;;2.55;2.35;;;21.60;99.90;;;;;;5037693;28;20203;-77
2023/09/02 06:20:28;;;;;;;3.03;2.67;;;21.70;99.90;;;;;;5022522;28;20736;-78
2023/09/02 06:22:55;;;;;;;4.13;2.80;;;21.80;99.90;;;;;;5027565;28;20240;-76
2023/09/02 06:25:22;;;;;;;4.95;2.78;;;22.10;99.90;;;;;;5027851;28;20855;-77
2023/09/02 06:27:49;;;;;;;3.28;2.97;;;22.20;99.90;;;;;;5028951;28;20231;-77
2023/09/02 06:30:16;;;;;;;4.22;3.60;;;22.30;99.90;;;;;;5035889;28;20282;-77
2023/09/02 06:32:44;;;;;;;4.70;3.40;;;22.50;99.90;;;;;;5023233;28;20669;-77
2023/09/02 06:35:15;;;;;;;5.53;3.33;;;22.60;99.90;;;;;;5028885;28;20227;-77
2023/09/02 06:37:42;;;;;;;3.40;2.88;;;22.60;99.90;;;;;;5026782;28;20241;-76
2023/09/02 06:40:09;;;;;;;3.92;3.08;;;22.60;99.90;;;;;;5027707;28;20263;-75
2023/09/02 06:42:36;;;;;;;5.13;3.40;;;22.80;99.90;;;;;;5029758;28;20199;-76
2023/09/02 06:45:03;;;;;;;5.38;3.20;;;23.00;99.90;;;;;;5018604;28;20234;-76
2023/09/02 06:47:30;;;;;;;2.92;2.72;;;23.20;99.90;;;;;;5028815;28;20199;-77
2023/09/02 06:49:58;;;;;;;3.83;3.30;;;23.40;99.90;;;;;;5030170;28;20223;-76
2023/09/02 06:52:25;;;;;;;4.68;3.47;;;23.50;99.90;;;;;;5030736;28;20675;-76
2023/09/02 06:54:52;;;;;;;4.45;3.58;;;23.50;99.90;;;;;;5036619;28;20203;-75
2023/09/02 06:57:19;;;;;;;4.05;3.50;;;23.40;99.90;;;;;;5025860;28;20209;-76
2023/09/02 06:59:46;;;;;;;3.85;3.53;;;23.40;99.90;;;;;;5033242;28;20254;-77
2023/09/02 07:02:13;;;;;;;3.67;3.38;;;23.40;99.90;;;;;;5029222;28;20223;-77
2023/09/02 07:04:40;;;;;;;3.50;3.20;;;23.60;99.90;;;;;;5028728;28;20200;-77
2023/09/02 07:07:08;;;;;;;4.55;3.95;;;23.70;99.90;;;;;;5028205;28;20223;-76
2023/09/02 07:09:36;;;;;;;4.13;2.88;;;23.90;99.90;;;;;;5027907;28;20224;-75
2023/09/02 07:12:03;;;;;;;4.55;3.15;;;24.00;99.90;;;;;;5023227;28;20202;-76
2023/09/02 07:14:30;;;;;;;9.85;4.72;;;24.10;99.90;;;;;;5021989;28;20294;-77
2023/09/02 07:16:57;;;;;;;4.75;3.70;;;24.40;99.90;;;;;;5026185;28;20203;-77
2023/09/02 07:19:24;;;;;;;3.78;3.47;;;24.50;99.90;;;;;;5027560;28;20228;-75
2023/09/02 07:21:51;;;;;;;6.40;4.13;;;24.70;99.90;;;;;;5027156;28;20242;-77
2023/09/02 07:24:19;;;;;;;7.57;3.53;;;24.70;99.90;;;;;;5026038;28;20540;-76
2023/09/02 07:26:46;;;;;;;3.83;3.15;;;24.70;99.90;;;;;;5018052;28;20344;-77
2023/09/02 07:29:13;;;;;;;3.92;3.47;;;24.70;99.90;;;;;;5035618;28;20264;-78
2023/09/02 07:31:40;;;;;;;5.80;3.63;;;24.70;99.90;;;;;;5027157;28;20227;-77
2023/09/02 07:34:07;;;;;;;4.80;3.50;;;24.70;99.90;;;;;;5024514;28;20241;-76
2023/09/02 07:36:34;;;;;;;4.00;3.55;;;24.70;99.90;;;;;;5028925;28;20203;-77
2023/09/02 07:39:01;;;;;;;3.42;3.10;;;24.60;99.90;;;;;;5029593;28;20685;-77
2023/09/02 07:41:29;;;;;;;5.35;3.95;;;24.70;99.90;;;;;;5027714;28;20200;-77
2023/09/02 07:43:56;;;;;;;4.82;3.65;;;24.60;99.90;;;;;;5021200;28;20618;-76
2023/09/02 07:46:24;;;;;;;5.35;3.90;;;24.60;99.90;;;;;;5012918;28;20196;-77
2023/09/02 07:48:51;;;;;;;4.68;3.63;;;24.70;99.90;;;;;;5025158;28;20604;-77
2023/09/02 07:51:18;;;;;;;4.30;3.60;;;24.80;99.90;;;;;;5020944;28;20598;-76
2023/09/02 07:53:45;;;;;;;4.00;3.60;;;25.00;99.90;;;;;;5029384;28;20300;-76
2023/09/02 07:56:12;;;;;;;3.88;3.33;;;25.10;99.90;;;;;;5033432;28;20638;-77
2023/09/02 07:58:42;;;;;;;3.40;3.10;;;25.00;99.90;;;;;;5027221;28;20254;-77
2023/09/02 08:01:09;;;;;;;4.90;3.35;;;25.10;99.90;;;;;;5023747;28;20216;-77
2023/09/02 08:03:36;;;;;;;3.38;2.95;;;25.30;99.90;;;;;;5030797;28;20239;-76
2023/09/02 08:06:06;;;;;;;6.00;4.10;;;25.50;99.90;;;;;;5027243;28;20253;-78
2023/09/02 08:08:33;;;;;;;4.55;3.35;;;25.50;99.90;;;;;;5024230;28;20216;-76
2023/09/02 08:11:03;;;;;;;4.75;3.85;;;25.50;99.90;;;;;;5032074;28;20216;-77
2023/09/02 08:13:31;;;;;;;3.70;3.40;;;25.50;99.90;;;;;;5029193;28;20286;-76
2023/09/02 08:15:59;;;;;;;4.90;3.38;;;25.50;99.90;;;;;;5025536;28;20612;-77
2023/09/02 08:18:26;;;;;;;4.78;3.40;;;25.50;99.90;;;;;;5024972;28;20247;-76
2023/09/02 08:20:53;;;;;;;4.97;3.30;;;25.60;99.90;;;;;;5028670;28;20297;-77
2023/09/02 08:23:20;;;;;;;3.60;3.22;;;25.80;99.90;;;;;;5024934;28;20570;-78
2023/09/02 08:25:47;;;;;;;3.92;3.30;;;25.80;99.90;;;;;;5016628;28;20250;-79
2023/09/02 08:28:14;;;;;;;3.85;3.55;;;25.70;99.90;;;;;;5033998;28;20250;-79
2023/09/02 08:30:41;;;;;;;3.20;3.00;;;25.70;99.90;;;;;;5020848;28;20250;-77
2023/09/02 08:33:09;;;;;;;4.05;3.55;;;25.70;99.90;;;;;;5029295;28;20588;-77
2023/09/02 08:35:37;;;;;;;3.55;3.25;;;26.00;99.90;;;;;;5026688;28;20204;-77
2023/09/02 08:38:04;;;;;;;4.10;3.38;;;26.00;99.90;;;;;;5031714;28;20203;-77
2023/09/02 08:40:32;;;;;;;4.18;3.75;;;26.00;99.90;;;;;;5022452;28;20287;-77
2023/09/02 08:43:01;;;;;;;4.80;3.17;;;26.10;99.90;;;;;;5026571;28;20234;-77
2023/09/02 08:45:30;;;;;;;3.97;3.17;;;26.10;99.90;;;;;;5025147;28;20195;-78
2023/09/02 08:48:01;;;;;;;3.53;3.15;;;26.20;99.90;;;;;;5027156;28;20184;-77
2023/09/02 08:50:30;;;;;;;5.05;3.60;;;26.30;99.90;;;;;;5034540;28;20191;-77
2023/09/02 08:52:58;;;;;;;4.75;3.40;;;26.20;99.90;;;;;;5029535;28;20225;-77
2023/09/02 08:55:27;;;;;;;4.03;3.13;;;26.20;99.90;;;;;;5034825;28;20238;-77
2023/09/02 08:58:02;;;;;;;3.97;3.00;;;26.40;99.90;;;;;;5034407;28;20206;-76
2023/09/02 09:00:31;;;;;;;3.88;3.08;;;26.50;99.90;;;;;;5031655;28;20616;-77
2023/09/02 09:02:58;;;;;;;4.07;3.00;;;26.50;99.90;;;;;;5025182;28;20300;-77
2023/09/02 09:05:26;;;;;;;5.28;3.83;;;26.60;99.90;;;;;;5010811;28;20908;-76
2023/09/02 09:08:00;;;;;;;4.13;3.20;;;26.70;99.90;;;;;;5032176;28;20212;-75
2023/09/02 09:10:32;;;;;;;3.83;2.97;;;26.80;99.90;;;;;;5032165;28;20222;-76
2023/09/02 09:13:00;;;;;;;4.13;3.00;;;26.90;99.90;;;;;;5024692;28;20204;-76
2023/09/02 09:15:27;;;;;;;3.95;3.15;;;27.20;99.90;;;;;;5009449;28;20228;-77
2023/09/02 09:17:55;;;;;;;5.50;3.17;;;27.30;99.90;;;;;;5029561;28;20204;-75
2023/09/02 09:20:22;;;;;;;4.50;2.92;;;27.20;99.90;;;;;;5027610;28;20239;-77
2023/09/02 09:22:50;;;;;;;3.50;3.20;;;27.30;99.90;;;;;;5029895;28;20277;-79
2023/09/02 09:25:20;;;;;;;4.82;3.20;;;27.30;99.90;;;;;;5027053;28;20204;-77
2023/09/02 09:30:34;;;;;;;5.78;3.42;;;27.50;99.90;;;;;;5029306;28;20608;-78
2023/09/02 09:33:04;;;;;;;3.33;3.03;;;27.70;99.90;;;;;;5032664;28;20262;-77
2023/09/02 09:35:31;;;;;;;4.10;2.67;;;27.60;99.90;;;;;;5026368;28;20206;-76
2023/09/02 09:37:58;;;;;;;4.30;2.67;;;27.40;99.90;;;;;;5027523;28;20239;-79
2023/09/02 09:40:34;;;;;;;3.17;2.55;;;27.20;99.90;;;;;;5024058;28;20216;-75
2023/09/02 09:43:02;;;;;;;3.63;2.90;;;27.10;99.90;;;;;;5023123;28;20208;-77
2023/09/02 09:45:30;;;;;;;2.85;2.60;;;27.00;99.90;;;;;;5023442;28;20367;-76
2023/09/02 09:47:59;;;;;;;4.03;2.70;;;27.10;99.90;;;;;;5029736;28;20286;-75
2023/09/02 09:50:29;;;;;;;4.40;3.03;;;27.20;99.90;;;;;;5025892;28;20283;-75
2023/09/02 09:53:01;;;;;;;3.30;3.05;;;27.50;99.90;;;;;;5024033;28;20286;-73
2023/09/02 09:55:30;;;;;;;5.25;3.00;;;27.50;99.90;;;;;;5026739;28;20199;-74
2023/09/02 09:57:59;;;;;;;3.55;3.15;;;27.70;99.90;;;;;;5014370;28;20302;-73
2023/09/02 10:00:27;;;;;;;3.42;2.90;;;27.80;99.90;;;;;;5016505;28;20786;-75
2023/09/02 10:02:56;;;;;;;4.47;3.15;;;27.90;99.90;;;;;;5030645;28;20199;-75
2023/09/02 10:05:27;;;;;;;2.63;2.42;;;27.70;99.90;;;;;;5032437;28;20215;-76
2023/09/02 10:07:59;;;;;;;3.47;2.85;;;27.60;99.90;;;;;;5026810;28;20211;-75
2023/09/02 10:10:31;;;;;;;4.90;2.92;;;27.90;99.90;;;;;;5022032;28;20200;-75
2023/09/02 10:13:00;;;;;;;3.15;2.85;;;28.00;99.90;;;;;;5030611;28;20295;-75
2023/09/02 10:15:28;;;;;;;3.00;2.70;;;27.90;99.90;;;;;;5020829;28;20203;-74
2023/09/02 10:17:57;;;;;;;4.28;3.15;;;28.10;99.90;;;;;;5011396;28;20200;-74
2023/09/02 10:20:27;;;;;;;4.30;2.70;;;28.20;99.90;;;;;;5023283;28;20697;-75
2023/09/02 10:22:55;;;;;;;3.97;2.67;;;28.00;99.90;;;;;;5015192;28;20703;-75
2023/09/02 10:25:27;;;;;;;4.50;2.60;;;28.20;99.90;;;;;;5013932;28;20203;-73
2023/09/02 10:28:04;;;;;;;2.80;2.60;;;28.20;99.90;;;;;;5020194;28;20207;-74
2023/09/02 10:30:36;;;;;;;3.08;2.78;;;28.20;99.90;;;;;;5022438;28;20423;-75
2023/09/02 10:33:11;;;;;;;3.67;2.83;;;28.20;99.90;;;;;;5021446;28;20227;-76
2023/09/02 10:35:42;;;;;;;3.58;2.30;;;28.00;99.90;;;;;;5020583;28;20203;-76
2023/09/02 10:38:12;;;;;;;7.18;2.58;;;28.00;99.90;;;;;;5026935;28;20227;-75
2023/09/02 10:40:41;;;;;;;2.95;2.45;;;28.40;99.90;;;;;;5024569;28;20227;-76
2023/09/02 10:43:10;;;;;;;2.88;2.67;;;28.40;99.90;;;;;;5020929;28;20265;-76
2023/09/02 10:45:39;;;;;;;6.38;2.90;;;28.30;99.90;;;;;;5025234;28;20617;-76
2023/09/02 10:48:06;;;;;;;3.22;2.65;;;28.30;99.90;;;;;;5024237;28;20667;-76
2023/09/02 10:50:34;;;;;;;2.53;2.33;;;28.30;99.90;;;;;;5025909;28;20224;-75
2023/09/02 10:53:01;;;;;;;3.20;2.47;;;28.40;99.90;;;;;;5027016;28;20203;-74
2023/09/02 10:55:31;;;;;;;2.50;2.30;;;28.20;99.90;;;;;;5021213;28;20204;-76
2023/09/02 10:58:00;;;;;;;2.53;2.25;;;28.20;99.90;;;;;;5024146;28;20214;-77
2023/09/02 11:00:29;;;;;;;3.65;2.30;;;28.10;99.90;;;;;;5028331;28;20269;-78
2023/09/02 11:02:57;;;;;;;3.63;2.28;;;28.10;99.90;;;;;;5024492;28;20207;-76
2023/09/02 11:05:25;;;;;;;2.10;1.88;;;28.20;99.90;;;;;;5019406;28;20905;-76
2023/09/02 11:07:55;;;;;;;4.25;2.35;;;28.60;99.90;;;;;;5023235;28;20235;-78
2023/09/02 11:10:22;;;;;;;2.20;2.05;;;28.40;99.90;;;;;;5028724;28;20231;-76
2023/09/02 11:13:06;;;;;;;3.08;2.55;;;28.40;99.90;;;;;;5018965;28;20697;-77
2023/09/02 11:15:36;;;;;;;2.60;2.40;;;28.30;99.90;;;;;;5020028;28;20254;-77
2023/09/02 11:18:28;;;;;;;3.60;2.33;;;28.40;99.90;;;;;;5028905;28;20668;-76
2023/09/02 11:20:55;;;;;;;2.50;2.30;;;28.30;99.90;;;;;;5032121;28;20233;-76
2023/09/02 11:23:23;;;;;;;2.90;2.25;;;28.20;99.90;;;;;;5028301;28;20254;-76
2023/09/02 11:26:01;;;;;;;2.67;2.13;;;28.40;99.90;;;;;;5007713;28;20226;-77
2023/09/02 11:28:28;;;;;;;3.25;2.35;;;28.60;99.90;;;;;;5020212;28;20231;-76
2023/09/02 11:31:12;;;;;;;2.20;1.98;;;28.80;99.90;;;;;;5030091;28;20227;-75
2023/09/02 11:33:40;;;;;;;3.80;2.33;;;28.90;99.90;;;;;;5022286;28;20409;-76
2023/09/02 11:36:11;;;;;;;2.67;2.40;;;28.90;99.90;;;;;;5021677;28;20242;-77
2023/09/02 11:38:38;;;;;;;2.45;2.25;;;28.80;99.90;;;;;;5026898;28;20223;-77
2023/09/02 11:41:04;;;;;;;2.00;1.80;;;28.70;99.90;;;;;;5030321;28;20277;-77
2023/09/02 11:43:32;;;;;;;2.38;2.17;;;28.70;99.90;;;;;;5008006;28;20630;-75
2023/09/02 11:46:00;;;;;;;2.85;2.40;;;28.70;99.90;;;;;;5019635;28;20245;-76
2023/09/02 11:48:29;;;;;;;3.17;2.28;;;28.80;99.90;;;;;;5023507;28;20273;-75
2023/09/02 11:50:58;;;;;;;2.97;2.45;;;28.70;99.90;;;;;;5011127;28;20208;-75
2023/09/02 11:53:26;;;;;;;2.33;2.13;;;28.70;99.90;;;;;;5012578;28;21000;-75
2023/09/02 11:55:53;;;;;;;3.35;2.30;;;28.90;99.90;;;;;;5011304;28;20282;-75
2023/09/02 11:58:20;;;;;;;2.28;2.08;;;28.90;99.90;;;;;;5018384;28;20222;-77
2023/09/02 12:00:47;;;;;;;2.47;2.20;;;28.90;99.90;;;;;;5017774;28;20251;-78
2023/09/02 12:03:24;;;;;;;2.00;1.90;;;28.90;99.90;;;;;;5008260;28;20200;-76
2023/09/02 12:05:54;;;;;;;2.40;2.20;;;29.10;99.90;;;;;;5016331;28;20692;-76
2023/09/02 12:08:21;;;;;;;2.30;2.10;;;29.40;99.90;;;;;;5018154;28;20247;-76
2023/09/02 12:10:48;;;;;;;2.55;2.05;;;29.50;99.90;;;;;;5020156;28;20700;-76
2023/09/02 12:13:16;;;;;;;2.25;2.00;;;29.50;99.90;;;;;;5022629;28;20235;-76
2023/09/02 12:15:47;;;;;;;3.15;2.40;;;29.40;99.90;;;;;;5025984;28;20616;-77
2023/09/02 12:18:14;;;;;;;6.70;2.28;;;29.60;99.90;;;;;;5019230;28;20251;-77
2023/09/02 12:20:42;;;;;;;2.55;2.20;;;29.70;99.90;;;;;;5026759;28;20227;-76
2023/09/02 12:23:10;;;;;;;3.40;1.80;;;29.70;99.90;;;;;;5032889;28;20245;-77
2023/09/02 12:25:38;;;;;;;2.58;2.00;;;29.60;99.90;;;;;;5030467;28;20191;-77
2023/09/02 12:28:13;;;;;;;2.22;1.90;;;29.60;99.90;;;;;;5027995;28;20203;-77
2023/09/02 12:30:41;;;;;;;1.85;1.70;;;29.50;99.90;;;;;;5023255;28;21293;-77
2023/09/02 12:33:08;;;;;;;1.85;1.70;;;29.30;99.90;;;;;;5026079;28;20198;-78
2023/09/02 12:35:35;;;;;;;2.38;2.10;;;29.20;99.90;;;;;;5021740;28;20257;-77
2023/09/02 12:38:05;;;;;;;3.47;1.88;;;29.10;99.90;;;;;;5024334;28;20195;-77
2023/09/02 12:40:33;;;;;;;2.65;1.80;;;29.00;99.90;;;;;;5028941;28;20249;-78
2023/09/02 12:43:02;;;;;;;3.17;1.90;;;28.90;99.90;;;;;;5032141;28;20231;-77
2023/09/02 12:45:30;;;;;;;2.20;2.00;;;28.70;99.90;;;;;;5029700;28;20727;-77
2023/09/02 12:48:00;;;;;;;3.15;2.13;;;28.60;99.90;;;;;;5029512;28;20243;-76
2023/09/02 12:50:28;;;;;;;2.30;2.10;;;28.50;99.90;;;;;;5028656;28;20207;-76
2023/09/02 12:52:57;;;;;;;2.50;1.90;;;28.50;99.90;;;;;;5023303;28;20196;-77
2023/09/02 12:55:25;;;;;;;2.55;2.20;;;28.60;99.90;;;;;;5024766;28;20199;-77
2023/09/02 12:57:53;;;;;;;2.75;2.17;;;28.70;99.90;;;;;;5032119;28;20663;-78